createdAt,value
2023-01-04T00:02:12.742Z,15.50
2023-01-04T00:04:41.555Z,14.10
2023-01-04T00:07:10.449Z,13.40
2023-01-04T00:09:39.267Z,11.03
2023-01-04T00:12:09.353Z,12.83
2023-01-04T00:14:37.940Z,19.03
2023-01-04T00:17:06.721Z,13.93
2023-01-04T00:19:35.411Z,13.57
2023-01-04T00:22:04.109Z,13.90
2023-01-04T00:24:32.721Z,12.73
2023-01-04T00:27:08.728Z,13.70
2023-01-04T00:29:38.970Z,13.63
2023-01-04T00:32:07.643Z,15.50
2023-01-04T00:34:36.327Z,13.77
2023-01-04T00:37:04.934Z,14.37
2023-01-04T00:39:33.503Z,15.77
2023-01-04T00:42:06.508Z,14.07
2023-01-04T00:44:36.234Z,18.03
2023-01-04T00:47:06.658Z,17.47
2023-01-04T00:49:35.293Z,17.43
2023-01-04T00:52:03.841Z,18.93
2023-01-04T00:54:32.448Z,17.70
2023-01-04T00:57:01.547Z,14.73
2023-01-04T00:59:30.480Z,14.00
2023-01-04T01:01:59.372Z,13.40
2023-01-04T01:04:29.510Z,15.77
2023-01-04T01:06:58.159Z,14.43
2023-01-04T01:09:26.824Z,16.53
2023-01-04T01:11:56.151Z,20.13
2023-01-04T01:14:26.803Z,17.83
2023-01-04T01:16:58.400Z,17.07
2023-01-04T01:19:31.008Z,15.90
2023-01-04T01:22:00.200Z,21.30
2023-01-04T01:24:29.269Z,22.07
2023-01-04T01:26:58.273Z,16.77
2023-01-04T01:29:27.183Z,22.37
2023-01-04T01:31:55.887Z,20.83
2023-01-04T01:34:24.567Z,20.40
2023-01-04T01:36:54.547Z,19.87
2023-01-04T01:39:23.133Z,19.53
2023-01-04T01:41:51.869Z,21.87
2023-01-04T01:45:11.518Z,21.20
2023-01-04T01:47:44.142Z,25.90
2023-01-04T01:50:25.143Z,21.20
2023-01-04T01:52:57.370Z,21.00
2023-01-04T01:55:26.084Z,26.27
2023-01-04T01:57:56.974Z,21.40
2023-01-04T02:00:25.709Z,28.60
2023-01-04T02:03:04.947Z,26.40
2023-01-04T02:05:35.511Z,25.80
2023-01-04T02:08:06.524Z,21.10
2023-01-04T02:10:35.715Z,23.90
2023-01-04T02:13:09.444Z,21.70
2023-01-04T02:15:49.703Z,20.43
2023-01-04T02:18:26.607Z,23.10
2023-01-04T02:20:59.037Z,25.00
2023-01-04T02:23:54.284Z,24.40
2023-01-04T02:27:15.552Z,30.63
2023-01-04T02:30:15.667Z,33.93
2023-01-04T02:33:06.592Z,30.37
2023-01-04T02:35:42.731Z,30.57
2023-01-04T02:38:19.195Z,33.97
2023-01-04T02:40:54.693Z,36.67
2023-01-04T02:43:49.179Z,37.00
2023-01-04T02:46:23.388Z,32.00
2023-01-04T02:49:22.167Z,31.47
2023-01-04T02:51:50.775Z,16.88
2023-01-04T02:54:23.104Z,19.37
2023-01-04T02:57:06.640Z,55.70
2023-01-04T02:59:49.788Z,75.43
2023-01-04T03:02:53.899Z,55.10
2023-01-04T03:05:49.076Z,41.97
2023-01-04T03:08:27.860Z,39.00
2023-01-04T03:11:02.073Z,37.80
2023-01-04T03:13:34.778Z,27.80
2023-01-04T03:16:08.869Z,29.57
2023-01-04T03:18:42.257Z,27.67
2023-01-04T03:21:14.728Z,26.03
2023-01-04T03:24:03.763Z,30.83
2023-01-04T03:26:52.869Z,26.30
2023-01-04T03:29:45.142Z,24.20
2023-01-04T03:32:45.176Z,24.97
2023-01-04T03:35:28.399Z,22.17
2023-01-04T03:38:24.221Z,25.00
2023-01-04T03:41:16.583Z,23.27
2023-01-04T03:44:10.003Z,23.77
2023-01-04T03:47:00.554Z,23.13
2023-01-04T03:49:36.097Z,20.37
2023-01-04T03:52:06.429Z,23.37
2023-01-04T03:54:39.876Z,21.23
2023-01-04T03:57:10.398Z,21.67
2023-01-04T03:59:43.130Z,22.33
2023-01-04T04:02:14.493Z,22.83
2023-01-04T04:05:00.812Z,22.57
2023-01-04T04:07:47.292Z,23.47
2023-01-04T04:10:17.431Z,25.83
2023-01-04T04:12:45.968Z,23.93
2023-01-04T04:15:14.705Z,23.90
2023-01-04T04:17:43.335Z,26.93
2023-01-04T04:20:13.895Z,29.20
2023-01-04T04:22:43.691Z,29.07
2023-01-04T04:25:12.293Z,27.53
2023-01-04T04:27:42.681Z,27.20
2023-01-04T04:30:11.781Z,29.83
2023-01-04T04:32:40.599Z,27.27
2023-01-04T04:35:10.397Z,25.70
2023-01-04T04:37:39.211Z,30.50
2023-01-04T04:40:29.069Z,25.23
2023-01-04T04:42:57.930Z,31.40
2023-01-04T04:45:26.524Z,27.40
2023-01-04T04:47:55.306Z,26.27
2023-01-04T04:50:23.841Z,33.60
2023-01-04T04:52:56.424Z,29.03
2023-01-04T04:55:25.503Z,30.83
2023-01-04T04:57:54.131Z,31.73
2023-01-04T05:00:24.417Z,32.07
2023-01-04T05:02:53.182Z,29.33
2023-01-04T05:05:21.778Z,27.80
2023-01-04T05:07:50.321Z,29.33
2023-01-04T05:10:19.041Z,29.03
2023-01-04T05:13:01.689Z,27.50
2023-01-04T05:15:35.143Z,26.93
2023-01-04T05:18:05.223Z,24.10
2023-01-04T05:20:34.591Z,26.57
2023-01-04T05:23:03.444Z,26.73
2023-01-04T05:25:32.353Z,24.50
2023-01-04T05:28:01.910Z,26.17
2023-01-04T05:30:49.233Z,24.55
2023-01-04T05:33:18.650Z,34.67
2023-01-04T05:35:47.341Z,25.33
2023-01-04T05:38:16.257Z,26.47
2023-01-04T05:40:45.967Z,27.67
2023-01-04T05:43:15.164Z,26.43
2023-01-04T05:45:49.137Z,23.97
2023-01-04T05:48:18.105Z,23.38
2023-01-04T05:50:47.053Z,28.37
2023-01-04T05:53:17.875Z,22.77
2023-01-04T05:55:46.706Z,23.83
2023-01-04T05:58:15.390Z,32.67
2023-01-04T06:00:45.950Z,23.83
2023-01-04T06:03:14.653Z,29.47
2023-01-04T06:05:43.598Z,26.93
2023-01-04T06:08:12.226Z,33.83
2023-01-04T06:10:40.999Z,26.23
2023-01-04T06:13:09.584Z,32.23
2023-01-04T06:15:43.075Z,27.33
2023-01-04T06:18:14.216Z,31.17
2023-01-04T06:20:44.799Z,26.60
2023-01-04T06:23:13.557Z,29.97
2023-01-04T06:25:42.116Z,33.50
2023-01-04T06:28:10.752Z,34.87
2023-01-04T06:30:39.631Z,33.40
2023-01-04T06:33:12.668Z,31.13
2023-01-04T06:35:55.050Z,32.97
2023-01-04T06:38:23.931Z,35.70
2023-01-04T06:40:52.538Z,38.00
2023-01-04T06:43:22.381Z,36.07
2023-01-04T06:45:51.007Z,35.40
2023-01-04T06:48:19.684Z,35.07
2023-01-04T06:50:49.706Z,34.10
2023-01-04T06:53:18.281Z,29.07
2023-01-04T06:55:47.080Z,29.20
2023-01-04T06:58:15.716Z,30.83
2023-01-04T07:00:44.281Z,34.83
2023-01-04T07:03:15.997Z,36.23
2023-01-04T07:05:44.969Z,35.20
2023-01-04T07:08:17.255Z,30.67
2023-01-04T07:10:45.823Z,28.80
2023-01-04T07:13:14.427Z,28.70
2023-01-04T07:15:43.408Z,29.33
2023-01-04T07:18:15.183Z,27.43
2023-01-04T07:20:45.065Z,28.60
2023-01-04T07:23:15.134Z,29.03
2023-01-04T07:25:43.810Z,29.87
2023-01-04T07:28:12.355Z,31.90
2023-01-04T07:30:41.133Z,28.93
2023-01-04T07:33:09.742Z,29.83
2023-01-04T07:35:38.294Z,29.77
2023-01-04T07:38:06.957Z,28.80
2023-01-04T07:40:36.991Z,29.33
2023-01-04T07:43:28.360Z,30.63
2023-01-04T07:45:57.431Z,29.43
2023-01-04T07:48:26.412Z,30.90
2023-01-04T07:50:55.026Z,32.83
2023-01-04T07:53:23.736Z,31.00
2023-01-04T07:55:59.374Z,32.13
2023-01-04T07:58:42.385Z,32.27
2023-01-04T08:01:19.284Z,32.67
2023-01-04T08:03:49.132Z,33.10
2023-01-04T08:06:19.250Z,32.77
2023-01-04T08:08:47.966Z,30.10
2023-01-04T08:11:20.432Z,30.63
2023-01-04T08:13:49.787Z,29.00
2023-01-04T08:16:23.252Z,30.13
2023-01-04T08:18:55.936Z,30.83
2023-01-04T08:21:25.406Z,31.27
2023-01-04T08:23:57.592Z,32.60
2023-01-04T08:26:28.372Z,32.43
2023-01-04T08:28:57.066Z,30.73
2023-01-04T08:31:27.997Z,31.30
2023-01-04T08:33:58.070Z,30.30
2023-01-04T08:36:29.276Z,30.10
2023-01-04T08:39:01.665Z,30.40
2023-01-04T08:41:57.300Z,31.07
2023-01-04T08:44:22.655Z,32.23
2023-01-04T08:46:52.632Z,35.70
2023-01-04T08:49:25.003Z,33.47
2023-01-04T08:51:53.839Z,34.00
2023-01-04T08:54:24.842Z,34.57
2023-01-04T08:56:55.144Z,35.93
2023-01-04T08:59:23.873Z,36.80
2023-01-04T09:01:52.728Z,38.70
2023-01-04T09:04:21.610Z,39.80
2023-01-04T09:06:50.483Z,41.43
2023-01-04T09:09:19.456Z,42.17
2023-01-04T09:11:48.450Z,40.13
2023-01-04T09:14:18.955Z,44.37
2023-01-04T09:16:47.812Z,43.20
2023-01-04T09:19:21.587Z,43.07
2023-01-04T09:21:51.004Z,41.70
2023-01-04T09:24:23.259Z,43.60
2023-01-04T09:26:52.452Z,50.67
2023-01-04T09:29:22.744Z,51.73
2023-01-04T09:31:51.635Z,46.53
2023-01-04T09:34:20.961Z,53.63
2023-01-04T09:36:50.772Z,49.83
2023-01-04T09:39:23.969Z,44.83
2023-01-04T09:41:58.791Z,47.53
2023-01-04T09:47:42.646Z,49.23
2023-01-04T09:50:18.647Z,50.20
2023-01-04T09:52:57.337Z,42.50
2023-01-04T09:55:38.862Z,45.33
2023-01-04T09:58:27.355Z,44.37
2023-01-04T10:01:03.406Z,46.43
2023-01-04T10:03:35.212Z,45.47
2023-01-04T10:06:05.534Z,45.90
2023-01-04T10:08:34.456Z,42.27
2023-01-04T10:11:13.919Z,35.63
2023-01-04T10:13:59.869Z,41.43
2023-01-04T10:17:12.257Z,39.77
2023-01-04T10:22:43.317Z,35.87
2023-01-04T10:25:25.953Z,26.80
2023-01-04T10:28:17.937Z,28.47
2023-01-04T10:30:56.355Z,27.83
2023-01-04T10:33:33.503Z,26.37
2023-01-04T10:36:03.080Z,25.10
2023-01-04T10:38:39.736Z,27.80
2023-01-04T10:41:13.863Z,30.30
2023-01-04T10:44:10.681Z,25.63
2023-01-04T10:46:45.271Z,26.77
2023-01-04T10:49:19.960Z,22.47
2023-01-04T10:51:54.618Z,22.87
2023-01-04T10:54:30.262Z,23.60
2023-01-04T10:57:06.857Z,23.53
2023-01-04T10:59:46.758Z,25.33
2023-01-04T11:02:24.217Z,25.07
2023-01-04T11:05:01.578Z,26.93
2023-01-04T11:07:40.908Z,28.33
2023-01-04T11:10:14.933Z,28.07
2023-01-04T11:12:44.038Z,31.23
2023-01-04T11:15:13.287Z,28.73
2023-01-04T11:17:44.344Z,31.60
2023-01-04T11:20:14.797Z,29.10
2023-01-04T11:22:51.276Z,28.23
2023-01-04T11:25:38.187Z,27.03
2023-01-04T11:28:19.589Z,29.27
2023-01-04T11:30:56.021Z,27.60
2023-01-04T11:33:25.696Z,26.53
2023-01-04T11:35:57.426Z,25.83
2023-01-04T11:38:29.145Z,25.93
2023-01-04T11:41:00.947Z,26.00
2023-01-04T11:43:31.228Z,24.67
2023-01-04T11:46:03.217Z,25.57
2023-01-04T11:48:38.838Z,25.17
2023-01-04T11:51:19.335Z,27.07
2023-01-04T11:53:58.119Z,27.47
2023-01-04T11:56:29.466Z,26.93
2023-01-04T11:59:22.897Z,25.87
2023-01-04T12:02:23.607Z,26.93
2023-01-04T12:05:03.197Z,26.67
2023-01-04T12:07:35.642Z,27.50
2023-01-04T12:10:24.995Z,25.90
2023-01-04T12:12:55.202Z,28.00
2023-01-04T12:15:32.635Z,27.17
2023-01-04T12:18:05.997Z,27.70
2023-01-04T12:20:35.901Z,26.93
2023-01-04T12:26:47.508Z,29.43
2023-01-04T12:29:54.269Z,29.60
2023-01-04T12:32:47.290Z,25.93
2023-01-04T12:36:02.694Z,28.55
2023-01-04T12:38:59.670Z,20.77
2023-01-04T12:42:28.626Z,20.63
2023-01-04T12:45:20.110Z,23.97
2023-01-04T12:48:07.402Z,21.20
2023-01-04T12:51:33.627Z,26.73
2023-01-04T12:54:04.704Z,25.05
2023-01-04T12:57:10.801Z,21.30
2023-01-04T12:59:41.196Z,25.50
2023-01-04T13:02:25.719Z,23.47
2023-01-04T13:05:25.594Z,24.20
2023-01-04T13:07:47.181Z,23.07
2023-01-04T13:10:28.366Z,21.93
2023-01-04T13:13:10.271Z,22.03
2023-01-04T13:15:54.916Z,22.73
2023-01-04T13:18:39.223Z,23.07
2023-01-04T13:21:14.336Z,24.67
2023-01-04T13:23:49.874Z,25.20
2023-01-04T13:26:35.882Z,23.80
2023-01-04T13:29:14.811Z,27.83
2023-01-04T13:32:04.496Z,26.77
2023-01-04T13:34:37.258Z,26.50
2023-01-04T13:37:17.490Z,23.17
2023-01-04T13:39:48.884Z,26.77
2023-01-04T13:42:26.070Z,25.13
2023-01-04T13:45:33.364Z,24.13
2023-01-04T13:48:04.395Z,28.60
2023-01-04T13:50:40.268Z,22.80
2023-01-04T13:53:18.340Z,24.13
2023-01-04T13:55:52.658Z,25.17
2023-01-04T13:58:23.549Z,21.90
2023-01-04T14:00:58.313Z,24.67
2023-01-04T14:03:33.974Z,22.80
2023-01-04T14:06:27.667Z,19.83
2023-01-04T14:09:08.394Z,22.23
2023-01-04T14:12:09.082Z,21.83
2023-01-04T14:14:47.536Z,21.73
2023-01-04T14:17:27.956Z,20.80
2023-01-04T14:19:58.482Z,19.17
2023-01-04T14:23:04.473Z,22.40
2023-01-04T14:25:56.521Z,29.10
2023-01-04T14:28:32.668Z,23.37
2023-01-04T14:31:22.560Z,19.77
2023-01-04T14:33:53.774Z,21.97
2023-01-04T14:36:27.119Z,22.60
2023-01-04T14:39:11.743Z,21.57
2023-01-04T14:41:42.034Z,21.60
2023-01-04T14:44:15.630Z,21.60
2023-01-04T14:46:47.262Z,26.03
2023-01-04T14:49:16.806Z,22.47
2023-01-04T14:51:48.714Z,24.70
2023-01-04T14:54:24.653Z,23.77
2023-01-04T14:56:54.579Z,23.57
2023-01-04T14:59:24.567Z,25.57
2023-01-04T15:01:53.785Z,22.80
2023-01-04T15:04:22.799Z,26.77
2023-01-04T15:06:56.208Z,30.13
2023-01-04T15:09:27.292Z,29.23
2023-01-04T15:11:57.577Z,24.73
2023-01-04T15:14:26.279Z,24.30
2023-01-04T15:16:55.014Z,22.73
2023-01-04T15:19:23.618Z,23.60
2023-01-04T15:21:52.296Z,25.90
2023-01-04T15:24:22.483Z,25.10
2023-01-04T15:26:52.596Z,20.60
2023-01-04T15:29:21.320Z,25.67
2023-01-04T15:31:51.103Z,20.70
2023-01-04T15:34:19.723Z,28.80
2023-01-04T15:36:52.216Z,26.77
2023-01-04T15:39:20.868Z,21.13
2023-01-04T15:42:06.889Z,21.70
2023-01-04T15:44:36.997Z,21.50
2023-01-04T15:47:07.223Z,25.33
2023-01-04T15:49:37.400Z,24.07
2023-01-04T15:52:06.391Z,23.57
2023-01-04T15:54:35.228Z,22.80
2023-01-04T15:57:03.835Z,23.40
2023-01-04T15:59:32.818Z,22.43
2023-01-04T16:02:11.647Z,22.77
2023-01-04T16:04:40.712Z,22.80
2023-01-04T16:07:11.851Z,25.30
2023-01-04T16:09:40.513Z,22.13
2023-01-04T16:12:27.501Z,25.83
2023-01-04T16:14:56.112Z,25.67
2023-01-04T16:17:28.580Z,25.30
2023-01-04T16:19:57.414Z,22.50
2023-01-04T16:22:26.108Z,26.63
2023-01-04T16:25:13.323Z,24.13
2023-01-04T16:27:44.982Z,29.83
2023-01-04T16:30:15.219Z,31.13
2023-01-04T16:32:45.951Z,24.70
2023-01-04T16:35:17.685Z,29.03
2023-01-04T16:37:47.916Z,28.43
2023-01-04T16:40:16.611Z,28.87
2023-01-04T16:42:51.550Z,26.40
2023-01-04T16:45:23.537Z,29.63
2023-01-04T16:47:55.079Z,27.93
2023-01-04T16:50:29.886Z,29.93
2023-01-04T16:52:58.735Z,27.73
2023-01-04T16:55:27.428Z,30.70
2023-01-04T16:57:56.265Z,27.83
2023-01-04T17:00:27.698Z,24.73
2023-01-04T17:02:59.141Z,22.67
2023-01-04T17:05:27.892Z,21.70
2023-01-04T17:07:57.412Z,22.63
2023-01-04T17:10:29.613Z,29.03
2023-01-04T17:12:58.711Z,26.17
2023-01-04T17:15:44.065Z,19.33
2023-01-04T17:18:15.485Z,19.03
2023-01-04T17:20:54.232Z,15.03
2023-01-04T17:23:23.286Z,16.13
2023-01-04T17:25:52.164Z,19.70
2023-01-04T17:28:24.877Z,16.73
2023-01-04T17:30:53.975Z,15.53
2023-01-04T17:33:24.271Z,18.50
2023-01-04T17:35:52.919Z,18.73
2023-01-04T17:38:21.654Z,19.07
2023-01-04T17:40:50.424Z,21.63
2023-01-04T17:43:19.040Z,19.07
2023-01-04T17:45:47.817Z,20.33
2023-01-04T17:48:19.670Z,19.87
2023-01-04T17:50:49.606Z,19.93
2023-01-04T17:53:18.188Z,20.20
2023-01-04T17:55:46.897Z,24.57
2023-01-04T17:58:23.214Z,21.47
2023-01-04T18:00:55.031Z,25.80
2023-01-04T18:03:24.792Z,20.53
2023-01-04T18:05:59.470Z,21.47
2023-01-04T18:08:44.488Z,21.10
2023-01-04T18:11:17.877Z,20.13
2023-01-04T18:13:47.148Z,20.30
2023-01-04T18:16:23.931Z,23.10
2023-01-04T18:18:56.348Z,23.50
2023-01-04T18:21:30.798Z,29.67
2023-01-04T18:24:34.767Z,26.50
2023-01-04T18:29:39.023Z,27.40
2023-01-04T18:32:13.166Z,27.10
2023-01-04T18:34:41.895Z,30.57
2023-01-04T18:37:11.981Z,25.20
2023-01-04T18:39:40.768Z,25.17
2023-01-04T18:42:14.013Z,23.00
2023-01-04T18:44:55.980Z,25.43
2023-01-04T18:47:25.436Z,27.23
2023-01-04T18:49:54.047Z,28.23
2023-01-04T18:52:24.109Z,24.43
2023-01-04T18:54:52.735Z,23.77
2023-01-04T18:57:21.427Z,24.70
2023-01-04T18:59:53.363Z,27.30
2023-01-04T19:02:22.496Z,25.23
2023-01-04T19:04:51.176Z,21.53
2023-01-04T19:07:19.972Z,24.33
2023-01-04T19:09:50.050Z,24.20
2023-01-04T19:12:18.841Z,24.50
2023-01-04T19:14:47.973Z,21.67
2023-01-04T19:17:17.233Z,21.33
2023-01-04T19:19:46.453Z,20.77
2023-01-04T19:22:15.656Z,18.60
2023-01-04T19:24:44.256Z,18.77
2023-01-04T19:27:14.320Z,20.17
2023-01-04T19:29:43.158Z,21.33
2023-01-04T19:32:11.919Z,20.60
2023-01-04T19:34:40.572Z,21.37
2023-01-04T19:37:12.509Z,22.33
2023-01-04T19:39:41.254Z,19.83
2023-01-04T19:42:10.090Z,18.07
2023-01-04T19:44:40.240Z,18.47
2023-01-04T19:47:10.607Z,20.67
2023-01-04T19:49:40.017Z,18.10
2023-01-04T19:52:08.674Z,16.30
2023-01-04T19:54:38.530Z,16.10
2023-01-04T19:57:07.399Z,17.37
2023-01-04T19:59:36.113Z,15.93
2023-01-04T20:02:06.414Z,15.97
2023-01-04T20:04:35.147Z,18.80
2023-01-04T20:07:03.820Z,15.60
2023-01-04T20:09:34.577Z,14.50
2023-01-04T20:12:03.264Z,17.03
2023-01-04T20:14:32.426Z,21.40
2023-01-04T20:17:01.109Z,17.97
2023-01-04T20:19:31.298Z,18.50
2023-01-04T20:22:00.373Z,18.87
2023-01-04T20:24:29.807Z,19.17
2023-01-04T20:27:01.325Z,17.27
2023-01-04T20:29:29.968Z,20.50
2023-01-04T20:32:00.912Z,22.80
2023-01-04T20:34:30.888Z,18.23
2023-01-04T20:37:02.235Z,16.80
2023-01-04T20:39:32.118Z,18.27
2023-01-04T20:42:18.191Z,17.03
2023-01-04T20:44:46.776Z,17.40
2023-01-04T20:47:19.990Z,17.77
2023-01-04T20:49:50.032Z,17.33
2023-01-04T20:52:18.667Z,17.97
2023-01-04T20:54:51.759Z,17.57
2023-01-04T20:57:20.455Z,19.13
2023-01-04T20:59:49.048Z,16.70
2023-01-04T21:02:17.699Z,14.80
2023-01-04T21:04:47.945Z,14.70
2023-01-04T21:07:18.209Z,17.00
2023-01-04T21:09:49.179Z,15.97
2023-01-04T21:12:17.935Z,14.97
2023-01-04T21:14:47.658Z,14.63
2023-01-04T21:17:16.385Z,16.33
2023-01-04T21:19:44.912Z,14.63
2023-01-04T21:22:13.533Z,15.00
2023-01-04T21:24:45.383Z,14.33
2023-01-04T21:27:14.211Z,15.07
2023-01-04T21:29:42.833Z,13.70
2023-01-04T21:32:11.360Z,15.47
2023-01-04T21:34:39.900Z,15.97
2023-01-04T21:37:08.553Z,15.57
2023-01-04T21:39:37.776Z,16.13
2023-01-04T21:42:07.844Z,16.10
2023-01-04T21:44:36.512Z,15.83
2023-01-04T21:47:05.319Z,15.70
2023-01-04T21:49:34.128Z,16.47
2023-01-04T21:52:02.743Z,17.73
2023-01-04T21:54:31.324Z,15.80
2023-01-04T21:57:00.743Z,17.03
2023-01-04T21:59:30.742Z,22.88
2023-01-04T22:01:59.430Z,18.93
2023-01-04T22:04:28.192Z,17.33
2023-01-04T22:06:56.782Z,15.40
2023-01-04T22:09:25.635Z,15.30
2023-01-04T22:11:54.286Z,26.20
2023-01-04T22:14:23.031Z,15.77
2023-01-04T22:16:53.421Z,13.00
2023-01-04T22:19:22.203Z,12.57
2023-01-04T22:21:51.096Z,12.33
2023-01-04T22:24:19.647Z,14.60
2023-01-04T22:26:49.490Z,14.90
2023-01-04T22:29:18.854Z,13.60
2023-01-04T22:31:47.511Z,15.67
2023-01-04T22:34:18.099Z,15.80
2023-01-04T22:36:46.686Z,15.50
2023-01-04T22:39:15.268Z,15.33
2023-01-04T22:41:44.392Z,14.27
2023-01-04T22:44:13.167Z,15.43
2023-01-04T22:46:41.819Z,13.50
2023-01-04T22:49:11.630Z,16.00
2023-01-04T22:51:41.545Z,15.30
2023-01-04T22:54:11.548Z,13.73
2023-01-04T22:56:40.389Z,13.90
2023-01-04T22:59:09.082Z,15.60
2023-01-04T23:01:39.998Z,15.20
2023-01-04T23:04:08.740Z,16.07
2023-01-04T23:06:37.357Z,15.97
2023-01-04T23:09:09.028Z,13.13
2023-01-04T23:11:38.096Z,14.70
2023-01-04T23:14:08.368Z,12.77
2023-01-04T23:16:37.183Z,14.17
2023-01-04T23:19:07.733Z,13.13
2023-01-04T23:21:37.376Z,14.47
2023-01-04T23:24:08.755Z,13.80
2023-01-04T23:26:37.401Z,14.63
2023-01-04T23:29:06.034Z,15.17
2023-01-04T23:31:35.535Z,14.27
2023-01-04T23:34:06.147Z,15.67
2023-01-04T23:36:37.352Z,15.43
2023-01-04T23:39:09.543Z,15.97
2023-01-04T23:41:48.066Z,14.53
2023-01-04T23:44:19.640Z,14.23
2023-01-04T23:46:48.909Z,13.57
2023-01-04T23:49:17.437Z,15.13
2023-01-04T23:51:46.080Z,14.50
2023-01-04T23:54:16.100Z,14.43
2023-01-04T23:56:45.183Z,15.00
2023-01-04T23:59:14.189Z,15.30
